Time;durP1;ratioP1;P1;durP2;ratioP2;P2;SDS_P1;SDS_P2;PMS_P1;PMS_P2;Temp;Humidity;BMP_temperature;BMP_pressure;BME280_temperature;BME280_humidity;BME280_pressure;Samples;Min_cycle;Max_cycle;Signal;HPM_P1;HPM_P2
2021/09/06 00:02:03;;;;;;;7.97;4.45;;;;;;;;;;5034628;28;20021;-52
2021/09/06 00:04:30;;;;;;;7.78;4.20;;;;;;;;;;5034620;28;20123;-52
2021/09/06 00:06:56;;;;;;;10.43;4.53;;;;;;;;;;5033023;28;20026;-52
2021/09/06 00:09:22;;;;;;;11.10;4.88;;;;;;;;;;5034300;28;20047;-52
2021/09/06 00:11:48;;;;;;;7.22;4.30;;;;;;;;;;5033956;28;20104;-52
2021/09/06 00:14:14;;;;;;;5.97;3.67;;;;;;;;;;5034560;28;20055;-52
2021/09/06 00:16:40;;;;;;;10.55;4.40;;;;;;;;;;5034128;28;20060;-52
2021/09/06 00:19:06;;;;;;;6.00;3.90;;;;;;;;;;5033441;28;20029;-52
2021/09/06 00:21:32;;;;;;;10.95;4.35;;;;;;;;;;5033098;28;20079;-52
2021/09/06 00:23:58;;;;;;;6.68;4.07;;;;;;;;;;5034054;28;20033;-52
2021/09/06 00:26:24;;;;;;;7.25;4.32;;;;;;;;;;5025483;28;20383;-52
2021/09/06 00:28:51;;;;;;;9.35;4.65;;;;;;;;;;5032964;28;20038;-52
2021/09/06 00:31:16;;;;;;;9.35;4.50;;;;;;;;;;5034159;28;20045;-52
2021/09/06 00:33:43;;;;;;;6.55;4.07;;;;;;;;;;5033887;28;20044;-52
2021/09/06 00:36:09;;;;;;;7.47;4.43;;;;;;;;;;5032546;28;20028;-51
2021/09/06 00:38:35;;;;;;;7.88;4.47;;;;;;;;;;5033222;28;20029;-52
2021/09/06 00:41:01;;;;;;;10.40;5.03;;;;;;;;;;5033615;28;20059;-52
2021/09/06 00:43:28;;;;;;;12.10;4.97;;;;;;;;;;5033960;28;20025;-51
2021/09/06 00:45:56;;;;;;;10.93;5.13;;;;;;;;;;5033740;28;20034;-51
2021/09/06 00:48:25;;;;;;;8.15;4.22;;;;;;;;;;5032370;28;20459;-52
2021/09/06 00:50:51;;;;;;;9.13;4.45;;;;;;;;;;5032912;28;20476;-52
2021/09/06 00:53:17;;;;;;;6.95;4.50;;;;;;;;;;5033664;28;20087;-52
2021/09/06 00:55:43;;;;;;;9.63;4.25;;;;;;;;;;5032690;28;20462;-52
2021/09/06 00:58:10;;;;;;;8.52;4.45;;;;;;;;;;5032867;28;20031;-52
2021/09/06 01:00:36;;;;;;;7.95;4.00;;;;;;;;;;5033891;28;20026;-52
2021/09/06 01:03:02;;;;;;;10.70;4.47;;;;;;;;;;5032578;28;20018;-52
2021/09/06 01:05:28;;;;;;;9.55;4.72;;;;;;;;;;5032574;28;20041;-52
2021/09/06 01:07:54;;;;;;;7.57;4.57;;;;;;;;;;5032770;28;20064;-52
2021/09/06 01:10:20;;;;;;;7.93;4.32;;;;;;;;;;5033354;28;20064;-52
2021/09/06 01:12:46;;;;;;;8.80;4.53;;;;;;;;;;5033132;28;20025;-52
2021/09/06 01:15:13;;;;;;;8.80;5.10;;;;;;;;;;5033520;28;20520;-52
2021/09/06 01:17:39;;;;;;;8.35;4.40;;;;;;;;;;5031925;28;20026;-52
2021/09/06 01:20:06;;;;;;;12.65;4.32;;;;;;;;;;5033320;28;20029;-51
2021/09/06 01:22:32;;;;;;;8.93;5.05;;;;;;;;;;5032159;28;20455;-52
2021/09/06 01:24:58;;;;;;;9.68;4.30;;;;;;;;;;5032920;28;20083;-52
2021/09/06 01:27:24;;;;;;;7.45;4.38;;;;;;;;;;5032042;28;20021;-52
2021/09/06 01:29:50;;;;;;;9.02;5.25;;;;;;;;;;5032582;28;20044;-51
2021/09/06 01:32:16;;;;;;;8.07;5.03;;;;;;;;;;5033476;28;20057;-52
2021/09/06 01:34:42;;;;;;;17.55;4.80;;;;;;;;;;5032675;28;20053;-51
2021/09/06 01:37:08;;;;;;;7.70;4.53;;;;;;;;;;5031491;28;20064;-52
2021/09/06 01:39:34;;;;;;;8.40;4.22;;;;;;;;;;5032629;28;20045;-52
2021/09/06 01:42:00;;;;;;;8.02;4.47;;;;;;;;;;5035459;28;20026;-52
2021/09/06 01:44:26;;;;;;;7.95;4.45;;;;;;;;;;5031461;28;20033;-52
2021/09/06 01:46:52;;;;;;;8.25;4.18;;;;;;;;;;5032327;28;20056;-52
2021/09/06 01:49:18;;;;;;;7.95;4.70;;;;;;;;;;5032211;28;20030;-51
2021/09/06 01:51:44;;;;;;;7.85;4.30;;;;;;;;;;5031700;28;20030;-51
2021/09/06 01:54:10;;;;;;;10.02;4.20;;;;;;;;;;5032985;28;20124;-52
2021/09/06 01:56:37;;;;;;;9.48;4.80;;;;;;;;;;5035167;28;20116;-51
2021/09/06 01:59:04;;;;;;;7.60;4.35;;;;;;;;;;5038287;28;20458;-51
2021/09/06 02:01:30;;;;;;;8.13;4.70;;;;;;;;;;5039045;28;20017;-51
2021/09/06 02:03:56;;;;;;;8.43;4.25;;;;;;;;;;5039106;28;20478;-51
2021/09/06 02:06:22;;;;;;;7.93;4.63;;;;;;;;;;5038823;28;20025;-52
2021/09/06 02:08:47;;;;;;;7.63;4.55;;;;;;;;;;5038316;28;20087;-52
2021/09/06 02:11:14;;;;;;;9.57;4.65;;;;;;;;;;5033305;28;20024;-52
2021/09/06 02:13:40;;;;;;;10.10;5.18;;;;;;;;;;5036207;28;20038;-52
2021/09/06 02:16:06;;;;;;;8.75;4.68;;;;;;;;;;5039159;28;20017;-52
2021/09/06 02:18:32;;;;;;;7.88;4.63;;;;;;;;;;5038200;28;20031;-52
2021/09/06 02:20:58;;;;;;;9.25;4.95;;;;;;;;;;5032141;28;20028;-52
2021/09/06 02:23:24;;;;;;;8.48;4.43;;;;;;;;;;5038929;28;20431;-52
2021/09/06 02:25:50;;;;;;;8.95;4.63;;;;;;;;;;5038220;28;20025;-52
2021/09/06 02:28:16;;;;;;;8.52;4.90;;;;;;;;;;5038281;28;20064;-51
2021/09/06 02:30:42;;;;;;;8.60;4.82;;;;;;;;;;5038570;28;20025;-52
2021/09/06 02:33:08;;;;;;;8.88;4.68;;;;;;;;;;5038917;28;20029;-51
2021/09/06 02:35:34;;;;;;;8.63;4.25;;;;;;;;;;5038770;28;20393;-52
2021/09/06 02:38:00;;;;;;;13.32;5.50;;;;;;;;;;5037047;28;20443;-51
2021/09/06 02:40:26;;;;;;;6.97;4.10;;;;;;;;;;5038912;28;20057;-51
2021/09/06 02:42:52;;;;;;;9.18;4.80;;;;;;;;;;5038467;28;20079;-51
2021/09/06 02:45:18;;;;;;;8.43;4.55;;;;;;;;;;5038751;28;20398;-51
2021/09/06 02:47:48;;;;;;;10.85;4.50;;;;;;;;;;5037462;28;20037;-52
2021/09/06 02:50:15;;;;;;;9.95;4.43;;;;;;;;;;5038833;28;20051;-51
2021/09/06 02:52:41;;;;;;;10.45;5.25;;;;;;;;;;5037526;28;20495;-51
2021/09/06 02:55:07;;;;;;;7.68;4.22;;;;;;;;;;5038561;28;20037;-52
2021/09/06 02:57:33;;;;;;;9.98;4.32;;;;;;;;;;5037524;28;20512;-51
2021/09/06 02:59:59;;;;;;;10.73;4.47;;;;;;;;;;5038317;28;20359;-51
2021/09/06 03:02:26;;;;;;;9.40;4.78;;;;;;;;;;5038846;28;20440;-51
2021/09/06 03:04:52;;;;;;;8.60;4.60;;;;;;;;;;5038838;28;20053;-52
2021/09/06 03:07:18;;;;;;;10.60;4.72;;;;;;;;;;5036479;28;20065;-51
2021/09/06 03:09:44;;;;;;;14.10;5.10;;;;;;;;;;5035597;28;20041;-51
2021/09/06 03:12:10;;;;;;;9.60;4.28;;;;;;;;;;5034801;28;20025;-51
2021/09/06 03:14:36;;;;;;;12.18;4.93;;;;;;;;;;5035186;28;20463;-51
2021/09/06 03:17:02;;;;;;;10.35;4.50;;;;;;;;;;5034641;28;20060;-51
2021/09/06 03:19:28;;;;;;;7.97;4.28;;;;;;;;;;5035683;28;20022;-51
2021/09/06 03:21:54;;;;;;;10.55;4.97;;;;;;;;;;5033945;28;20029;-52
2021/09/06 03:24:20;;;;;;;8.40;4.72;;;;;;;;;;5035644;28;20355;-51
2021/09/06 03:26:46;;;;;;;8.48;4.80;;;;;;;;;;5034621;28;20452;-51
2021/09/06 03:29:12;;;;;;;8.07;4.63;;;;;;;;;;5034120;28;20033;-52
2021/09/06 03:31:38;;;;;;;9.50;4.47;;;;;;;;;;5033749;28;20489;-52
2021/09/06 03:34:04;;;;;;;10.55;5.10;;;;;;;;;;5035040;28;20116;-51
2021/09/06 03:36:30;;;;;;;11.95;4.63;;;;;;;;;;5034460;28;20024;-51
2021/09/06 03:38:56;;;;;;;6.78;4.32;;;;;;;;;;5033759;28;20355;-52
2021/09/06 03:41:23;;;;;;;12.40;5.38;;;;;;;;;;5034439;28;20029;-51
2021/09/06 03:43:49;;;;;;;11.65;4.70;;;;;;;;;;5034884;28;20121;-51
2021/09/06 03:46:16;;;;;;;10.27;4.35;;;;;;;;;;5034986;28;20026;-52
2021/09/06 03:48:42;;;;;;;12.93;5.32;;;;;;;;;;5034020;28;20033;-52
2021/09/06 03:51:08;;;;;;;10.10;4.90;;;;;;;;;;5035180;28;20034;-51
2021/09/06 03:53:34;;;;;;;10.52;5.30;;;;;;;;;;5033755;28;20025;-51
2021/09/06 03:56:00;;;;;;;9.52;5.30;;;;;;;;;;5034513;28;20028;-52
2021/09/06 03:58:26;;;;;;;6.22;4.00;;;;;;;;;;5033871;28;20363;-51
2021/09/06 04:00:52;;;;;;;8.88;4.95;;;;;;;;;;5033093;28;20473;-51
2021/09/06 04:03:18;;;;;;;9.63;5.22;;;;;;;;;;5034446;28;20026;-51
2021/09/06 04:05:44;;;;;;;6.82;4.20;;;;;;;;;;5034346;28;20026;-51
2021/09/06 04:08:10;;;;;;;10.40;4.60;;;;;;;;;;5032731;28;20108;-51
2021/09/06 04:10:36;;;;;;;9.40;4.38;;;;;;;;;;5034292;28;20351;-51
2021/09/06 04:13:02;;;;;;;10.73;4.55;;;;;;;;;;5034216;28;20097;-51
2021/09/06 04:15:28;;;;;;;8.13;4.90;;;;;;;;;;5034538;28;20434;-52
2021/09/06 04:17:54;;;;;;;8.73;4.68;;;;;;;;;;5033491;28;20075;-51
2021/09/06 04:20:20;;;;;;;11.52;5.10;;;;;;;;;;5018172;28;20037;-52
2021/09/06 04:22:46;;;;;;;11.20;4.95;;;;;;;;;;5032986;28;20018;-51
2021/09/06 04:25:12;;;;;;;11.88;5.60;;;;;;;;;;5033633;28;20017;-51
2021/09/06 04:27:38;;;;;;;6.90;4.50;;;;;;;;;;5033041;28;20044;-51
2021/09/06 04:30:05;;;;;;;13.15;5.07;;;;;;;;;;5034072;28;20120;-51
2021/09/06 04:32:31;;;;;;;9.38;4.85;;;;;;;;;;5034335;28;20021;-51
2021/09/06 04:34:57;;;;;;;10.45;4.80;;;;;;;;;;5034324;28;20068;-52
2021/09/06 04:37:23;;;;;;;8.98;4.45;;;;;;;;;;5030871;28;20458;-52
2021/09/06 04:39:49;;;;;;;10.50;5.10;;;;;;;;;;5032853;28;20447;-52
2021/09/06 04:45:19;;;;;;;10.68;4.80;;;;;;;;;;5003650;28;20126;-52
2021/09/06 04:47:45;;;;;;;13.45;4.70;;;;;;;;;;5022514;28;20029;-51
2021/09/06 04:50:11;;;;;;;9.98;4.57;;;;;;;;;;5032990;28;20021;-51
2021/09/06 04:52:37;;;;;;;11.10;4.28;;;;;;;;;;5032350;28;20026;-51
2021/09/06 04:55:03;;;;;;;9.00;4.53;;;;;;;;;;5032571;28;20041;-51
2021/09/06 04:57:29;;;;;;;11.32;5.43;;;;;;;;;;5031314;28;20025;-51
2021/09/06 04:59:55;;;;;;;9.50;4.80;;;;;;;;;;5032710;28;20103;-51
2021/09/06 05:02:21;;;;;;;8.45;4.70;;;;;;;;;;5032765;28;20463;-51
2021/09/06 05:04:48;;;;;;;11.32;5.03;;;;;;;;;;5032819;28;20079;-51
2021/09/06 05:07:14;;;;;;;7.57;4.28;;;;;;;;;;5033356;28;20025;-51
2021/09/06 05:09:40;;;;;;;10.82;5.88;;;;;;;;;;5032324;28;20051;-51
2021/09/06 05:12:06;;;;;;;10.18;4.63;;;;;;;;;;5032570;28;20402;-52
2021/09/06 05:14:32;;;;;;;11.68;5.57;;;;;;;;;;5032063;28;20025;-51
2021/09/06 05:16:58;;;;;;;10.85;4.65;;;;;;;;;;5033214;28;20523;-52
2021/09/06 05:19:24;;;;;;;9.50;5.15;;;;;;;;;;5033244;28;20048;-52
2021/09/06 05:21:50;;;;;;;9.10;4.60;;;;;;;;;;5032935;28;20112;-51
2021/09/06 05:24:16;;;;;;;9.65;4.95;;;;;;;;;;5031493;28;20022;-51
2021/09/06 05:26:42;;;;;;;12.02;5.20;;;;;;;;;;5031950;28;20119;-51
2021/09/06 05:29:08;;;;;;;8.77;5.00;;;;;;;;;;5032923;28;20656;-51
2021/09/06 05:31:34;;;;;;;9.70;4.78;;;;;;;;;;5032051;28;20129;-51
2021/09/06 05:34:00;;;;;;;8.40;5.05;;;;;;;;;;5031811;28;20101;-52
2021/09/06 05:36:26;;;;;;;7.95;4.97;;;;;;;;;;5032645;28;20100;-51
2021/09/06 05:38:52;;;;;;;10.80;5.47;;;;;;;;;;5032082;28;20029;-52
2021/09/06 05:41:20;;;;;;;12.10;5.20;;;;;;;;;;5032088;28;20071;-52
2021/09/06 05:43:49;;;;;;;13.77;5.10;;;;;;;;;;5032191;28;20565;-51
2021/09/06 05:46:15;;;;;;;8.68;5.05;;;;;;;;;;5032832;28;20053;-51
2021/09/06 05:48:41;;;;;;;12.88;5.05;;;;;;;;;;5031026;28;20045;-52
2021/09/06 05:51:07;;;;;;;9.05;4.40;;;;;;;;;;5031523;28;20022;-52
2021/09/06 05:53:33;;;;;;;10.18;4.63;;;;;;;;;;5028727;28;20463;-52
2021/09/06 05:55:59;;;;;;;9.07;3.92;;;;;;;;;;5027000;28;20022;-52
2021/09/06 05:58:25;;;;;;;8.70;5.20;;;;;;;;;;5031737;28;20036;-52
2021/09/06 06:00:51;;;;;;;8.55;4.35;;;;;;;;;;5026234;28;20026;-52
2021/09/06 06:03:17;;;;;;;8.07;4.15;;;;;;;;;;5032655;28;20328;-52
2021/09/06 06:05:43;;;;;;;8.57;4.25;;;;;;;;;;5029522;28;20430;-52
2021/09/06 06:08:09;;;;;;;9.75;4.90;;;;;;;;;;5031694;28;20454;-52
2021/09/06 06:10:35;;;;;;;8.05;4.63;;;;;;;;;;5032306;28;20048;-52
2021/09/06 06:13:01;;;;;;;10.85;5.07;;;;;;;;;;5031861;28;20332;-52
2021/09/06 06:15:28;;;;;;;10.68;5.20;;;;;;;;;;5031840;28;20029;-52
2021/09/06 06:17:53;;;;;;;9.45;4.93;;;;;;;;;;5032785;28;20112;-52
2021/09/06 06:20:20;;;;;;;9.60;5.18;;;;;;;;;;5032516;28;20113;-52
2021/09/06 06:22:46;;;;;;;8.25;4.78;;;;;;;;;;5031945;28;20109;-52
2021/09/06 06:25:12;;;;;;;11.00;5.40;;;;;;;;;;5031078;28;20029;-52
2021/09/06 06:27:38;;;;;;;11.60;5.10;;;;;;;;;;5031820;28;20423;-52
2021/09/06 06:30:04;;;;;;;10.68;5.40;;;;;;;;;;5032645;28;20108;-52
2021/09/06 06:32:30;;;;;;;11.27;4.93;;;;;;;;;;5030757;28;20053;-52
2021/09/06 06:34:56;;;;;;;12.18;5.85;;;;;;;;;;5031702;28;20612;-52
2021/09/06 06:37:22;;;;;;;10.02;5.70;;;;;;;;;;5032212;28;20067;-52
2021/09/06 06:39:48;;;;;;;12.98;7.00;;;;;;;;;;5031052;28;20128;-52
2021/09/06 06:42:14;;;;;;;11.52;6.55;;;;;;;;;;5032026;28;20029;-52
2021/09/06 06:44:40;;;;;;;14.18;5.28;;;;;;;;;;5035059;28;20033;-53
2021/09/06 06:47:06;;;;;;;13.73;6.22;;;;;;;;;;5034947;28;20044;-52
2021/09/06 06:49:32;;;;;;;12.07;6.60;;;;;;;;;;5035911;28;20041;-52
2021/09/06 06:51:58;;;;;;;14.18;7.05;;;;;;;;;;5035401;28;20100;-52
2021/09/06 06:54:24;;;;;;;13.30;6.90;;;;;;;;;;5031192;28;20530;-52
2021/09/06 06:56:50;;;;;;;9.60;5.65;;;;;;;;;;5035251;28;20112;-52
2021/09/06 06:59:17;;;;;;;11.90;6.88;;;;;;;;;;5034966;28;20017;-52
2021/09/06 07:01:43;;;;;;;13.80;6.90;;;;;;;;;;5035153;28;20022;-52
2021/09/06 07:04:09;;;;;;;17.40;7.35;;;;;;;;;;5034626;28;20080;-52
2021/09/06 07:06:35;;;;;;;13.18;7.13;;;;;;;;;;5025010;28;20514;-52
2021/09/06 07:09:01;;;;;;;12.35;6.78;;;;;;;;;;5022986;28;20037;-52
2021/09/06 07:11:27;;;;;;;12.63;7.55;;;;;;;;;;5034585;28;20432;-52
2021/09/06 07:13:53;;;;;;;14.13;7.93;;;;;;;;;;5033650;28;20612;-52
2021/09/06 07:16:19;;;;;;;14.23;7.45;;;;;;;;;;5035402;28;20363;-52
2021/09/06 07:18:45;;;;;;;13.90;7.03;;;;;;;;;;5035170;28;20398;-52
2021/09/06 07:21:11;;;;;;;17.38;9.45;;;;;;;;;;5035597;28;20028;-52
2021/09/06 07:23:37;;;;;;;16.40;7.57;;;;;;;;;;5034232;28;20018;-52
2021/09/06 07:26:04;;;;;;;17.45;8.15;;;;;;;;;;5034163;28;20466;-52
2021/09/06 07:28:30;;;;;;;18.80;9.13;;;;;;;;;;5034532;28;20055;-52
2021/09/06 07:30:57;;;;;;;15.30;8.52;;;;;;;;;;5034802;28;20033;-52
2021/09/06 07:33:23;;;;;;;16.45;9.20;;;;;;;;;;5035087;28;20079;-52
2021/09/06 07:35:49;;;;;;;22.83;10.88;;;;;;;;;;5034212;28;20387;-52
2021/09/06 07:38:15;;;;;;;13.90;8.75;;;;;;;;;;5035217;28;20021;-52
2021/09/06 07:40:41;;;;;;;18.45;9.35;;;;;;;;;;5034291;28;20076;-52
2021/09/06 07:43:07;;;;;;;23.88;11.02;;;;;;;;;;5034582;28;20076;-52
2021/09/06 07:45:33;;;;;;;27.50;11.40;;;;;;;;;;5033678;28;20040;-52
2021/09/06 07:47:59;;;;;;;26.83;10.85;;;;;;;;;;5033925;28;20029;-52
2021/09/06 07:50:25;;;;;;;60.63;22.88;;;;;;;;;;5034989;28;20029;-51
2021/09/06 07:52:51;;;;;;;74.35;25.70;;;;;;;;;;5034807;28;20040;-51
2021/09/06 07:55:17;;;;;;;95.78;30.83;;;;;;;;;;5032457;28;20064;-51
2021/09/06 07:57:43;;;;;;;74.13;28.90;;;;;;;;;;5034275;28;20024;-51
2021/09/06 08:00:09;;;;;;;80.28;30.67;;;;;;;;;;5034786;28;20014;-51
2021/09/06 08:02:41;;;;;;;27.48;13.95;;;;;;;;;;5035105;28;20026;-51
2021/09/06 08:05:07;;;;;;;21.75;9.93;;;;;;;;;;5033891;28;20071;-51
2021/09/06 08:07:33;;;;;;;47.40;19.95;;;;;;;;;;5034847;28;20410;-51
2021/09/06 08:09:59;;;;;;;41.53;17.98;;;;;;;;;;5033327;28;20526;-51
2021/09/06 08:12:25;;;;;;;61.45;22.52;;;;;;;;;;5033806;28;20033;-51
2021/09/06 08:14:51;;;;;;;53.25;20.88;;;;;;;;;;5033565;28;20021;-51
2021/09/06 08:17:17;;;;;;;42.25;19.42;;;;;;;;;;5034497;28;20075;-51
2021/09/06 08:19:43;;;;;;;30.80;15.82;;;;;;;;;;5034067;28;20036;-51
2021/09/06 08:22:09;;;;;;;22.10;12.75;;;;;;;;;;5034281;28;20021;-51
2021/09/06 08:24:37;;;;;;;31.40;14.50;;;;;;;;;;5032751;28;20037;-51
2021/09/06 08:27:03;;;;;;;34.50;16.40;;;;;;;;;;5033411;28;20025;-51
2021/09/06 08:29:29;;;;;;;20.63;9.98;;;;;;;;;;5033640;28;20049;-51
2021/09/06 08:31:55;;;;;;;30.33;13.75;;;;;;;;;;5034365;28;20021;-51
2021/09/06 08:34:21;;;;;;;23.50;13.63;;;;;;;;;;5033147;28;20029;-51
2021/09/06 08:36:47;;;;;;;21.92;11.63;;;;;;;;;;5034003;28;20114;-51
2021/09/06 08:39:13;;;;;;;19.25;11.90;;;;;;;;;;5033746;28;20029;-51
2021/09/06 08:41:39;;;;;;;16.02;9.40;;;;;;;;;;5032563;28;20026;-51
2021/09/06 08:44:05;;;;;;;15.30;10.05;;;;;;;;;;5032757;28;20029;-51
2021/09/06 08:46:31;;;;;;;20.35;10.82;;;;;;;;;;5034265;28;20350;-51
2021/09/06 08:48:57;;;;;;;18.83;10.43;;;;;;;;;;5032238;28;20091;-51
2021/09/06 08:51:23;;;;;;;21.67;11.02;;;;;;;;;;5034169;28;20021;-51
2021/09/06 08:53:49;;;;;;;17.40;9.20;;;;;;;;;;5032192;28;20025;-51
2021/09/06 08:56:17;;;;;;;16.33;9.93;;;;;;;;;;5032979;28;20075;-52
2021/09/06 08:58:43;;;;;;;16.63;9.50;;;;;;;;;;5033170;28;20098;-52
2021/09/06 09:01:09;;;;;;;15.13;7.80;;;;;;;;;;5033724;28;20432;-51
2021/09/06 09:03:35;;;;;;;14.68;8.73;;;;;;;;;;5032711;28;20032;-51
2021/09/06 09:06:02;;;;;;;15.30;9.38;;;;;;;;;;5033568;28;20025;-51
2021/09/06 09:08:29;;;;;;;15.32;8.50;;;;;;;;;;5033337;28;20034;-51
2021/09/06 09:11:00;;;;;;;13.18;8.05;;;;;;;;;;5033030;28;20040;-51
2021/09/06 09:13:28;;;;;;;14.32;8.27;;;;;;;;;;5032384;28;20030;-51
2021/09/06 09:15:55;;;;;;;13.68;7.60;;;;;;;;;;5033407;28;20112;-51
2021/09/06 09:18:28;;;;;;;17.67;9.18;;;;;;;;;;5033606;28;20033;-51
2021/09/06 09:21:00;;;;;;;17.13;9.38;;;;;;;;;;5032654;28;20029;-51
2021/09/06 09:23:36;;;;;;;16.38;8.35;;;;;;;;;;5032956;28;20025;-51
2021/09/06 09:26:03;;;;;;;11.25;6.60;;;;;;;;;;5032351;28;20046;-51
2021/09/06 09:28:30;;;;;;;13.55;7.90;;;;;;;;;;5033004;28;20040;-51
2021/09/06 09:31:06;;;;;;;12.43;7.80;;;;;;;;;;5032728;28;20190;-51
2021/09/06 09:33:37;;;;;;;14.10;7.80;;;;;;;;;;5032377;28;20044;-51
2021/09/06 09:36:03;;;;;;;15.15;7.88;;;;;;;;;;5031756;28;20029;-51
2021/09/06 09:38:37;;;;;;;13.57;7.38;;;;;;;;;;5031990;28;20036;-52
2021/09/06 09:41:10;;;;;;;18.08;6.75;;;;;;;;;;5030116;28;20036;-51
2021/09/06 09:43:36;;;;;;;19.45;7.85;;;;;;;;;;5031707;28;20462;-51
2021/09/06 09:46:05;;;;;;;11.80;6.97;;;;;;;;;;5032229;28;20033;-51
2021/09/06 09:48:31;;;;;;;17.52;6.97;;;;;;;;;;5031963;28;20030;-51
2021/09/06 09:50:58;;;;;;;13.05;6.55;;;;;;;;;;5032131;28;20025;-51
2021/09/06 09:53:24;;;;;;;10.05;5.97;;;;;;;;;;5032987;28;20029;-51
2021/09/06 09:55:50;;;;;;;11.07;6.50;;;;;;;;;;5030845;28;20029;-51
2021/09/06 09:58:16;;;;;;;11.75;7.47;;;;;;;;;;5032297;28;20103;-51
2021/09/06 10:00:45;;;;;;;11.73;6.95;;;;;;;;;;5032263;28;20029;-51
2021/09/06 10:03:11;;;;;;;11.35;6.80;;;;;;;;;;5032839;28;20129;-51
2021/09/06 10:05:38;;;;;;;15.27;7.63;;;;;;;;;;5031981;28;20026;-51
2021/09/06 10:08:06;;;;;;;10.52;5.45;;;;;;;;;;5032835;28;20028;-51
2021/09/06 10:10:36;;;;;;;9.68;5.38;;;;;;;;;;5031438;28;20356;-51
2021/09/06 10:13:02;;;;;;;;;;;;;;;;;;5032656;28;20025;-51
2021/09/06 10:15:28;;;;;;;11.45;6.15;;;;;;;;;;5031923;28;20260;-51
2021/09/06 10:17:54;;;;;;;7.55;5.38;;;;;;;;;;5034235;28;20041;-51
2021/09/06 10:20:21;;;;;;;9.18;5.88;;;;;;;;;;5036769;28;20040;-51
2021/09/06 10:22:48;;;;;;;15.15;7.55;;;;;;;;;;5035870;28;20305;-50
2021/09/06 10:25:19;;;;;;;11.38;5.75;;;;;;;;;;5035721;28;20030;-51
2021/09/06 10:27:57;;;;;;;10.45;5.65;;;;;;;;;;5035968;28;20033;-51
2021/09/06 10:30:32;;;;;;;9.63;5.60;;;;;;;;;;5036103;28;20049;-51
2021/09/06 10:32:58;;;;;;;8.50;5.38;;;;;;;;;;5036481;28;20025;-51
2021/09/06 10:35:27;;;;;;;9.13;4.97;;;;;;;;;;5035342;28;20028;-51
2021/09/06 10:38:02;;;;;;;9.38;5.47;;;;;;;;;;5036230;28;20032;-51
2021/09/06 10:40:30;;;;;;;9.60;4.93;;;;;;;;;;5035433;28;20025;-51
2021/09/06 10:42:56;;;;;;;9.77;5.47;;;;;;;;;;5035629;28;20029;-51
2021/09/06 10:45:23;;;;;;;11.68;5.25;;;;;;;;;;5035400;28;20037;-51
2021/09/06 10:47:57;;;;;;;9.02;5.57;;;;;;;;;;5034659;28;20387;-51
2021/09/06 10:50:23;;;;;;;8.25;4.82;;;;;;;;;;5036175;28;20033;-51
2021/09/06 10:52:50;;;;;;;11.18;5.10;;;;;;;;;;5035682;28;20120;-51
2021/09/06 10:55:17;;;;;;;9.85;4.43;;;;;;;;;;5035095;28;20494;-51
2021/09/06 10:57:43;;;;;;;8.90;5.60;;;;;;;;;;5034585;28;20021;-51
2021/09/06 11:00:17;;;;;;;11.82;5.22;;;;;;;;;;5035326;28;20025;-51
2021/09/06 11:02:43;;;;;;;10.70;5.25;;;;;;;;;;5035878;28;20024;-51
2021/09/06 11:05:17;;;;;;;9.45;5.20;;;;;;;;;;5035032;28;20060;-51
2021/09/06 11:07:43;;;;;;;11.27;5.30;;;;;;;;;;5035699;28;20049;-51
2021/09/06 11:10:14;;;;;;;9.90;5.18;;;;;;;;;;5035530;28;20430;-51
2021/09/06 11:12:41;;;;;;;7.43;5.13;;;;;;;;;;5034147;28;20463;-51
2021/09/06 11:15:07;;;;;;;10.00;4.80;;;;;;;;;;5035186;28;20124;-51
2021/09/06 11:17:33;;;;;;;8.70;5.05;;;;;;;;;;5035715;28;20116;-51
2021/09/06 11:20:01;;;;;;;7.85;4.57;;;;;;;;;;5035368;28;20224;-51
2021/09/06 11:22:28;;;;;;;9.75;4.80;;;;;;;;;;5035488;28;20037;-51
2021/09/06 11:24:59;;;;;;;17.73;4.82;;;;;;;;;;5034635;28;20033;-51
2021/09/06 11:27:31;;;;;;;8.80;4.85;;;;;;;;;;5034330;28;20052;-51
2021/09/06 11:29:58;;;;;;;8.80;4.90;;;;;;;;;;5033430;28;20385;-51
2021/09/06 11:32:24;;;;;;;11.88;5.20;;;;;;;;;;5035440;28;20017;-51
2021/09/06 11:35:01;;;;;;;8.00;4.75;;;;;;;;;;5034464;28;20022;-52
2021/09/06 11:37:27;;;;;;;8.23;5.05;;;;;;;;;;5034913;28;20037;-51
2021/09/06 11:39:54;;;;;;;9.40;5.03;;;;;;;;;;5034238;28;20030;-51
2021/09/06 11:42:20;;;;;;;17.70;5.32;;;;;;;;;;5034154;28;20034;-52
2021/09/06 11:44:47;;;;;;;18.23;6.03;;;;;;;;;;5033582;28;20478;-51
2021/09/06 11:47:13;;;;;;;9.40;4.55;;;;;;;;;;5034853;28;20052;-51
2021/09/06 11:49:39;;;;;;;10.27;5.82;;;;;;;;;;5033529;28;20037;-51
2021/09/06 11:52:12;;;;;;;8.90;5.22;;;;;;;;;;5034960;28;20047;-51
2021/09/06 11:54:44;;;;;;;12.27;5.53;;;;;;;;;;5034164;28;20083;-51
2021/09/06 11:57:12;;;;;;;7.50;5.18;;;;;;;;;;5034103;28;20033;-51
2021/09/06 11:59:39;;;;;;;7.75;5.03;;;;;;;;;;5033920;28;20354;-52
2021/09/06 12:02:12;;;;;;;9.43;5.07;;;;;;;;;;5034248;28;20032;-51
2021/09/06 12:04:38;;;;;;;9.70;4.97;;;;;;;;;;5033832;28;20455;-51
2021/09/06 12:07:16;;;;;;;15.05;5.03;;;;;;;;;;5034444;28;20435;-51
2021/09/06 12:09:42;;;;;;;9.65;5.78;;;;;;;;;;5034309;28;20068;-51
2021/09/06 12:12:19;;;;;;;9.73;5.05;;;;;;;;;;5033756;28;20351;-51
2021/09/06 12:14:46;;;;;;;7.85;5.00;;;;;;;;;;5033145;28;20034;-50
2021/09/06 12:17:12;;;;;;;7.47;4.95;;;;;;;;;;5034221;28;20443;-51
2021/09/06 12:19:43;;;;;;;12.82;5.75;;;;;;;;;;5034035;28;20120;-51
2021/09/06 12:22:22;;;;;;;9.85;5.82;;;;;;;;;;5021140;28;20514;-51
2021/09/06 12:24:48;;;;;;;13.30;5.55;;;;;;;;;;5012831;28;20025;-51
2021/09/06 12:27:16;;;;;;;12.82;5.75;;;;;;;;;;5020124;28;20477;-52
2021/09/06 12:29:42;;;;;;;14.80;6.38;;;;;;;;;;5033388;28;20060;-55
2021/09/06 12:32:09;;;;;;;10.50;5.57;;;;;;;;;;5034134;28;20148;-51
2021/09/06 12:34:35;;;;;;;9.93;5.47;;;;;;;;;;5033486;28;20097;-51
2021/09/06 12:37:03;;;;;;;16.45;5.47;;;;;;;;;;5034109;28;20033;-51
2021/09/06 12:39:29;;;;;;;9.52;5.55;;;;;;;;;;5034088;28;20029;-51
2021/09/06 12:41:55;;;;;;;11.68;5.90;;;;;;;;;;5033018;28;20088;-51
2021/09/06 12:44:21;;;;;;;11.77;5.38;;;;;;;;;;5032620;28;20469;-52
2021/09/06 12:46:47;;;;;;;8.25;5.10;;;;;;;;;;5033187;28;20519;-51
2021/09/06 12:49:13;;;;;;;7.85;4.85;;;;;;;;;;5034122;28;20116;-51
2021/09/06 12:51:39;;;;;;;10.77;4.95;;;;;;;;;;5033906;28;20106;-52
2021/09/06 12:54:06;;;;;;;12.55;5.45;;;;;;;;;;5033357;28;20109;-51
2021/09/06 12:56:35;;;;;;;11.20;5.35;;;;;;;;;;5033737;28;20021;-51
2021/09/06 12:59:01;;;;;;;10.98;5.22;;;;;;;;;;5032088;28;20029;-51
2021/09/06 13:01:27;;;;;;;7.97;5.28;;;;;;;;;;5032871;28;20070;-51
2021/09/06 13:03:53;;;;;;;11.10;5.63;;;;;;;;;;5032899;28;20025;-51
2021/09/06 13:06:19;;;;;;;9.82;5.38;;;;;;;;;;5033219;28;20018;-53
2021/09/06 13:08:45;;;;;;;11.68;5.63;;;;;;;;;;5033368;28;20030;-53
2021/09/06 13:11:11;;;;;;;14.18;5.15;;;;;;;;;;5032021;28;20029;-53
2021/09/06 13:13:37;;;;;;;10.60;6.07;;;;;;;;;;5030948;28;20178;-53
2021/09/06 13:16:03;;;;;;;11.82;5.30;;;;;;;;;;5032074;28;20355;-53
2021/09/06 13:18:29;;;;;;;7.60;5.25;;;;;;;;;;5033201;28;20447;-53
2021/09/06 13:20:55;;;;;;;10.25;5.32;;;;;;;;;;5033306;28;20112;-53
2021/09/06 13:23:21;;;;;;;11.35;5.13;;;;;;;;;;5033140;28;20025;-53
2021/09/06 13:25:47;;;;;;;9.38;5.88;;;;;;;;;;5032370;28;20029;-53
2021/09/06 13:28:13;;;;;;;10.77;5.60;;;;;;;;;;5032034;28;20459;-53
2021/09/06 13:30:39;;;;;;;10.00;5.75;;;;;;;;;;5032327;28;20033;-53
2021/09/06 13:33:06;;;;;;;9.43;5.35;;;;;;;;;;5033230;28;20049;-53
2021/09/06 13:35:32;;;;;;;9.30;4.90;;;;;;;;;;5032331;28;20095;-53
2021/09/06 13:37:58;;;;;;;14.27;5.47;;;;;;;;;;5033272;28;20025;-52
2021/09/06 13:40:24;;;;;;;8.85;4.85;;;;;;;;;;5032760;28;20363;-53
2021/09/06 13:42:50;;;;;;;8.63;4.72;;;;;;;;;;5031960;28;20037;-53
2021/09/06 13:45:17;;;;;;;9.95;5.47;;;;;;;;;;5031481;28;20014;-53
2021/09/06 13:47:43;;;;;;;8.60;4.43;;;;;;;;;;5032407;28;20029;-53
2021/09/06 13:50:09;;;;;;;10.98;5.18;;;;;;;;;;5032975;28;20099;-53
2021/09/06 13:52:35;;;;;;;8.70;5.05;;;;;;;;;;5031962;28;20026;-53
2021/09/06 13:55:02;;;;;;;8.90;5.05;;;;;;;;;;5032289;28;20090;-53
2021/09/06 13:57:28;;;;;;;8.25;4.68;;;;;;;;;;5031470;28;20028;-53
2021/09/06 13:59:54;;;;;;;10.27;4.90;;;;;;;;;;5032023;28;20025;-53
2021/09/06 14:02:20;;;;;;;7.03;4.05;;;;;;;;;;5032545;28;20313;-53
2021/09/06 14:04:46;;;;;;;7.97;4.75;;;;;;;;;;5032075;28;20065;-53
2021/09/06 14:07:12;;;;;;;6.55;4.13;;;;;;;;;;5032917;28;20025;-54
2021/09/06 14:09:38;;;;;;;9.52;4.38;;;;;;;;;;5032825;28;20029;-53
2021/09/06 14:12:04;;;;;;;9.02;4.38;;;;;;;;;;5032633;28;20029;-53
2021/09/06 14:14:30;;;;;;;8.27;4.45;;;;;;;;;;5029589;28;20026;-53
2021/09/06 14:16:56;;;;;;;9.63;4.90;;;;;;;;;;5031832;28;20036;-53
2021/09/06 14:19:22;;;;;;;10.25;4.72;;;;;;;;;;5033101;28;20044;-53
2021/09/06 14:21:48;;;;;;;7.60;4.45;;;;;;;;;;5032725;28;20100;-53
2021/09/06 14:24:14;;;;;;;17.10;4.85;;;;;;;;;;5031775;28;20485;-53
2021/09/06 14:26:40;;;;;;;12.30;4.38;;;;;;;;;;5032238;28;20053;-53
2021/09/06 14:29:06;;;;;;;9.07;4.78;;;;;;;;;;5030693;28;20121;-53
2021/09/06 14:31:32;;;;;;;12.85;4.75;;;;;;;;;;5032576;28;20045;-53
2021/09/06 14:33:58;;;;;;;10.38;4.88;;;;;;;;;;5031934;28;20029;-53
2021/09/06 14:36:25;;;;;;;9.05;5.25;;;;;;;;;;5032981;28;20017;-53